Maastricht-Aachen Airport

EHBK · Limburg, 荷兰

使用的METAR站距离机场38 km。
罗盘
风向 的 风向 210° Maastricht-Aachen Airport 3/21
风: 4 kt, 2 beaufort

4 kt

改变
0 ft 1.000 2.000 3.000 4.000 5.000
Cloud Cloud Cloud Cloud Cloud Cloud
BKN 100
METAR EBLG 280220Z 21004KT 0050 R22L/0375N R22R/0350N R04R/0300N FG BKN001 01/01 Q1020 NOSIG

METAR Maastricht-Aachen Airport - EHBK/MST

Maastricht-Aachen Airport是,荷兰中的中型机场。 该机场位于纬度50,91130和经度5,76964。 该机场有一条跑道: 3/21. 本场的ICAO机场代码为EHBK。 该机场的IATA代码为MST。 机场在Bruxelles FIR中。

该航空气象观测是针对列日机场在2024年2月28日 03:20, 当地时间进行的。

机场观察

风向为210°,速度为4 kt。

可见度为50 m。 跑道22L的能见度为375 m 和 没有趋势。 跑道22R的能见度为350 m 和 没有趋势。 跑道04R的能见度为300 m 和 没有趋势。

有碎云在100 ft的高度。 破损或更高的上限为100 ft。

当前天气为多雾路段。 温度为1 °C,阵风为-3 °C。 露点为1 °C,相对湿度为100%。 海平面上的气压为1020 hPa (QNH)。

白天

今天,太阳从07:24升起,在18:14降落。 这适用于Maastricht-Aachen Airport,世界夏令时可能有所不同。 当地时间与世界标准时间之间的时差为+1 小时。 当前,没有夏令时有效。

公司介绍

我们没有关于这个机场的公司信息。

体会

到Vliegles.nl去找飞行课程,跳伞和其他飞行体验。 浏览页面,了解Maastricht-Aachen Airport附近所有可用的活动。 你也可以使用搜索功能来寻找你所在地附近的特定飞行课程、跳伞或其他飞行体验。

警示语

跑道22L处的能见度为375 m 和 没有趋势。
跑道22R处的能见度为350 m 和 没有趋势。
跑道04R处的能见度为300 m 和 没有趋势。

跑道

Id 标题 侧风 逆风 侧风 %
3/21 033°-213° 4 kt 5 %

逆风成分最大的方向会被突出显示,并用于横风计算。 这并不一定意味着这个方向在使用。

乌云

100 ft BKN 碎云

温度 & 天气

天气 多雾路段
温度 1 °C
露点 1 °C
相对湿度 100%
风寒 -3 °C
Kp-index 1 (0-9)

白天

日出
07:25 (3:40)
中午
12:50
日落
18:16

小工具

你想在你的网站上有一个关于Maastricht-Aachen Airport的当前航空天气(METAR)的小部件吗?

显示HTML代码
?>